Time;durP1;ratioP1;P1;durP2;ratioP2;P2;SDS_P1;SDS_P2;PMS_P1;PMS_P2;Temp;Humidity;BMP_temperature;BMP_pressure;BME280_temperature;BME280_humidity;BME280_pressure;Samples;Min_cycle;Max_cycle;Signal;HPM_P1;HPM_P2
2022/04/05 00:00:18;;;;;;;3.83;3.53;;;;;;;10.61;71.81;99499.38;5086225;28;20048;-48
2022/04/05 00:02:45;;;;;;;2.97;2.08;;;;;;;10.59;72.66;99506.28;5085957;28;20584;-49
2022/04/05 00:05:12;;;;;;;2.40;2.15;;;;;;;10.59;72.76;99506.28;5084227;28;21414;-48
2022/04/05 00:07:38;;;;;;;3.65;1.83;;;;;;;10.52;72.83;99503.81;5085401;28;20545;-46
2022/04/05 00:10:05;;;;;;;1.88;1.77;;;;;;;10.56;72.41;99508.91;5082996;28;20055;-48
2022/04/05 00:12:32;;;;;;;2.25;2.05;;;;;;;10.59;72.01;99508.88;5082471;28;20097;-51
2022/04/05 00:14:58;;;;;;;2.40;2.30;;;;;;;10.48;72.54;99504.72;5082459;28;20117;-49
2022/04/05 00:17:25;;;;;;;1.90;1.80;;;;;;;10.46;73.04;99503.84;5088431;28;20052;-47
2022/04/05 00:19:52;;;;;;;2.17;1.98;;;;;;;10.55;72.10;99505.50;5088151;28;20462;-47
2022/04/05 00:22:18;;;;;;;2.45;2.08;;;;;;;10.52;72.70;99506.38;5085502;28;20094;-50
2022/04/05 00:24:45;;;;;;;2.38;2.28;;;;;;;10.49;72.33;99493.47;5086487;28;20052;-49
2022/04/05 00:27:11;;;;;;;2.00;1.90;;;;;;;10.48;72.52;99501.25;5085120;28;20059;-47
2022/04/05 00:29:38;;;;;;;2.25;2.15;;;;;;;10.49;73.01;99493.47;5086289;28;20051;-49
2022/04/05 00:32:05;;;;;;;0.80;0.57;;;;;;;10.48;72.43;99490.91;5084027;28;20445;-47
2022/04/05 00:34:32;;;;;;;2.28;1.98;;;;;;;10.49;72.68;99492.59;5083243;28;20076;-48
2022/04/05 00:36:58;;;;;;;2.35;2.20;;;;;;;10.53;71.89;99494.28;5079730;28;20044;-49
2022/04/05 00:39:26;;;;;;;0.93;0.75;;;;;;;10.50;72.42;99490.00;5082731;28;20425;-49
2022/04/05 00:41:53;;;;;;;1.17;0.90;;;;;;;10.49;72.50;99488.28;5083799;27;20534;-46
2022/04/05 00:44:20;;;;;;;2.60;2.40;;;;;;;10.49;72.46;99488.28;5081129;28;20080;-47
2022/04/05 00:49:51;;;;;;;1.17;0.60;;;;;;;10.43;72.39;99488.31;4998468;28;20419;-51
2022/04/05 00:52:20;;;;;;;1.00;0.50;;;;;;;10.41;72.50;99500.44;4994034;28;20061;-47
2022/04/05 00:54:50;;;;;;;1.30;0.57;;;;;;;10.40;73.12;99493.53;4992489;28;20062;-48
2022/04/05 00:57:19;;;;;;;1.00;0.73;;;;;;;10.42;73.08;99494.38;4990701;28;20043;-52
2022/04/05 00:59:49;;;;;;;1.00;0.80;;;;;;;10.40;72.88;99490.94;4987025;28;20125;-51
2022/04/05 01:02:18;;;;;;;1.05;0.43;;;;;;;10.35;73.67;99491.00;4982821;28;20093;-51
2022/04/05 01:04:47;;;;;;;2.00;0.70;;;;;;;10.39;73.05;99491.81;4982209;28;20630;-49
2022/04/05 01:07:16;;;;;;;1.02;0.50;;;;;;;10.35;72.96;99496.19;4989515;28;20050;-50
2022/04/05 01:09:44;;;;;;;0.65;0.55;;;;;;;10.33;73.64;99497.06;5011591;28;20058;-45
2022/04/05 01:12:13;;;;;;;1.25;0.85;;;;;;;10.35;73.51;99487.53;4984286;28;20063;-46
2022/04/05 01:14:40;;;;;;;3.50;1.13;;;;;;;10.36;73.66;99491.84;4988210;28;20441;-51
2022/04/05 01:17:07;;;;;;;0.90;0.65;;;;;;;10.35;72.87;99490.13;5013915;28;20669;-51
2022/04/05 01:19:34;;;;;;;2.85;0.80;;;;;;;10.31;73.82;99488.47;5031147;28;20552;-49
2022/04/05 01:22:02;;;;;;;1.67;0.80;;;;;;;10.33;73.38;99486.72;4990347;28;20474;-48
2022/04/05 01:24:29;;;;;;;2.25;0.85;;;;;;;10.25;74.42;99485.06;5011067;28;20085;-51
2022/04/05 01:26:58;;;;;;;1.27;0.70;;;;;;;10.24;74.04;99472.97;4985304;28;20074;-51
2022/04/05 01:29:26;;;;;;;1.08;0.57;;;;;;;10.26;73.67;99486.78;4986892;28;20100;-51
2022/04/05 01:31:56;;;;;;;1.50;0.77;;;;;;;10.30;73.39;99477.22;4984910;28;20073;-52
2022/04/05 01:34:25;;;;;;;0.85;0.70;;;;;;;10.28;73.98;99479.88;4981693;28;20046;-53
2022/04/05 01:36:55;;;;;;;1.30;0.77;;;;;;;10.28;73.33;99469.50;5010847;28;20092;-49
2022/04/05 01:39:24;;;;;;;0.75;0.73;;;;;;;10.25;74.14;99469.53;4981113;28;20051;-50
2022/04/05 01:41:53;;;;;;;2.33;0.60;;;;;;;10.27;73.75;99472.13;5008912;28;20047;-48
2022/04/05 01:44:20;;;;;;;1.02;0.80;;;;;;;10.25;73.92;99471.25;4987735;28;20050;-51
2022/04/05 01:46:47;;;;;;;1.17;0.70;;;;;;;10.21;73.75;99462.69;5001862;28;20058;-49
2022/04/05 01:49:14;;;;;;;1.50;0.95;;;;;;;10.22;73.46;99469.56;5002882;28;20046;-46
2022/04/05 01:51:42;;;;;;;1.88;0.45;;;;;;;10.22;73.13;99468.69;4994047;28;20047;-50
2022/04/05 01:54:12;;;;;;;1.33;0.90;;;;;;;10.26;73.70;99466.06;4995608;28;20050;-48
2022/04/05 01:59:21;;;;;;;1.25;0.73;;;;;;;10.20;73.12;99470.47;5068441;27;20413;-51
2022/04/05 02:01:48;;;;;;;1.38;1.02;;;;;;;10.21;73.78;99467.88;5024745;28;20065;-50
2022/04/05 02:04:18;;;;;;;1.23;0.77;;;;;;;10.21;73.97;99467.00;5023169;28;20056;-46
2022/04/05 02:06:46;;;;;;;2.65;1.30;;;;;;;10.21;73.30;99467.00;5021888;28;20679;-50
2022/04/05 02:09:14;;;;;;;1.90;1.27;;;;;;;10.21;73.78;99461.81;5018441;28;20088;-46
2022/04/05 02:11:43;;;;;;;2.20;1.92;;;;;;;10.18;73.94;99462.72;5023175;28;20049;-51
2022/04/05 02:14:11;;;;;;;1.70;1.00;;;;;;;10.19;74.15;99463.53;5020976;28;20424;-50
2022/04/05 02:16:38;;;;;;;3.55;1.02;;;;;;;10.22;73.79;99454.03;5024154;28;20046;-49
2022/04/05 02:19:05;;;;;;;1.67;1.40;;;;;;;10.21;73.95;99462.69;5023953;28;20762;-47
2022/04/05 02:21:32;;;;;;;2.78;1.33;;;;;;;10.21;74.13;99457.50;5022697;28;20053;-51
2022/04/05 02:24:16;;;;;;;1.23;0.93;;;;;;;10.19;74.03;99454.06;5023167;28;20045;-48
2022/04/05 02:26:43;;;;;;;2.35;1.10;;;;;;;10.22;73.79;99459.22;5022762;28;20381;-50
2022/04/05 02:29:10;;;;;;;2.55;1.15;;;;;;;10.22;73.51;99454.03;5024389;28;20409;-51
2022/04/05 02:31:36;;;;;;;2.38;1.05;;;;;;;10.23;73.55;99445.41;5026043;28;20051;-47
2022/04/05 02:34:03;;;;;;;2.15;1.58;;;;;;;10.22;73.85;99438.50;5024598;28;20056;-50
2022/04/05 02:36:30;;;;;;;3.08;1.20;;;;;;;10.21;74.03;99447.16;5023565;28;20045;-45
2022/04/05 02:38:56;;;;;;;1.67;1.05;;;;;;;10.23;73.84;99432.44;5021597;28;20512;-46
2022/04/05 02:41:23;;;;;;;1.02;0.77;;;;;;;10.22;73.47;99442.81;5020926;28;20135;-53
2022/04/05 02:43:49;;;;;;;1.45;0.82;;;;;;;10.24;73.51;99434.16;5018593;28;20370;-47
2022/04/05 02:46:16;;;;;;;3.92;1.40;;;;;;;10.22;73.61;99430.75;5019219;28;20049;-51
2022/04/05 02:48:43;;;;;;;2.85;1.55;;;;;;;10.21;73.19;99436.81;5020821;28;20920;-53
2022/04/05 02:51:11;;;;;;;1.23;0.55;;;;;;;10.16;73.42;99433.38;5022152;28;20064;-53
2022/04/05 02:53:39;;;;;;;2.47;1.25;;;;;;;10.19;73.60;99428.19;5022581;28;20099;-51
2022/04/05 02:56:07;;;;;;;4.10;1.52;;;;;;;10.22;73.15;99432.47;5020886;28;20604;-48
2022/04/05 02:58:36;;;;;;;4.10;1.20;;;;;;;10.22;73.38;99438.50;5018278;28;20045;-47
2022/04/05 03:01:04;;;;;;;2.97;0.93;;;;;;;10.20;73.89;99435.06;5019294;28;20527;-50
2022/04/05 03:03:32;;;;;;;2.25;1.25;;;;;;;10.24;73.36;99435.91;5022104;28;20113;-49
2022/04/05 03:06:00;;;;;;;3.08;1.38;;;;;;;10.23;73.25;99440.22;5018390;28;20041;-51
2022/04/05 03:08:27;;;;;;;2.10;1.77;;;;;;;10.22;73.69;99441.09;5019814;28;20100;-50
2022/04/05 03:10:54;;;;;;;3.97;1.27;;;;;;;10.24;73.38;99434.16;5006503;28;20053;-46
2022/04/05 03:13:20;;;;;;;1.83;1.08;;;;;;;10.23;74.07;99434.19;5006385;28;20127;-46
2022/04/05 03:15:47;;;;;;;2.95;1.13;;;;;;;10.23;73.49;99440.22;5007609;28;20566;-47
2022/04/05 03:18:14;;;;;;;1.42;0.70;;;;;;;10.22;73.52;99437.63;5004014;28;20116;-50
2022/04/05 03:20:41;;;;;;;3.85;1.25;;;;;;;10.22;73.87;99432.47;5008208;28;20456;-48
2022/04/05 03:23:07;;;;;;;1.77;0.85;;;;;;;10.22;74.00;99437.63;5005605;28;20485;-49
2022/04/05 03:25:35;;;;;;;2.30;1.95;;;;;;;10.25;73.74;99433.31;5003612;28;20046;-48
2022/04/05 03:28:03;;;;;;;2.00;1.20;;;;;;;10.18;73.74;99434.25;5004445;28;20053;-51
2022/04/05 03:30:30;;;;;;;2.47;1.02;;;;;;;10.16;74.64;99433.38;5007069;28;20504;-50
2022/04/05 03:32:57;;;;;;;2.33;0.80;;;;;;;10.16;73.86;99431.66;5007658;28;20097;-49
2022/04/05 03:35:24;;;;;;;1.80;0.68;;;;;;;10.22;73.41;99440.22;5004720;28;20592;-52
2022/04/05 03:37:52;;;;;;;2.00;0.85;;;;;;;10.22;74.41;99429.88;5005630;28;20137;-54
2022/04/05 03:40:18;;;;;;;3.03;1.08;;;;;;;10.23;73.75;99435.03;5006058;28;20050;-53
2022/04/05 03:42:45;;;;;;;3.55;1.60;;;;;;;10.22;74.14;99427.28;5007483;28;20108;-51
2022/04/05 03:45:12;;;;;;;2.35;1.35;;;;;;;10.25;74.25;99422.09;5003852;28;20463;-54
2022/04/05 03:47:38;;;;;;;2.30;1.25;;;;;;;10.23;74.30;99432.44;5005755;28;20100;-52
2022/04/05 03:50:05;;;;;;;2.03;0.65;;;;;;;10.24;74.15;99431.56;5006472;28;20097;-49
2022/04/05 03:52:32;;;;;;;1.77;0.93;;;;;;;10.21;74.06;99426.44;5003497;28;20112;-53
2022/04/05 03:54:59;;;;;;;2.67;1.63;;;;;;;10.23;73.72;99419.50;5003279;28;20096;-53
2022/04/05 03:57:43;;;;;;;3.90;1.55;;;;;;;10.21;73.97;99416.09;5001157;28;20282;-48
2022/04/05 04:00:10;;;;;;;1.35;0.93;;;;;;;10.20;73.81;99419.53;5006416;28;20057;-47
2022/04/05 04:02:36;;;;;;;3.67;0.93;;;;;;;10.21;73.63;99416.09;5006095;28;20057;-47
2022/04/05 04:05:04;;;;;;;1.80;1.08;;;;;;;10.18;74.10;99405.78;5004331;28;20470;-50
2022/04/05 04:07:30;;;;;;;2.20;0.43;;;;;;;10.15;74.08;99410.97;5003796;28;20116;-49
2022/04/05 04:10:02;;;;;;;2.30;0.80;;;;;;;10.15;74.08;99405.81;5003972;28;20107;-52
2022/04/05 04:12:28;;;;;;;1.42;0.75;;;;;;;10.13;74.26;99407.53;5001886;28;20046;-49
2022/04/05 04:14:55;;;;;;;1.52;1.00;;;;;;;10.16;74.42;99407.50;5004174;28;20708;-48
2022/04/05 04:17:21;;;;;;;2.67;0.95;;;;;;;10.15;74.04;99405.81;5007053;28;20050;-49
2022/04/05 04:19:48;;;;;;;2.15;1.55;;;;;;;10.16;73.96;99408.38;5005567;28;20370;-51
2022/04/05 04:22:15;;;;;;;2.00;0.60;;;;;;;10.15;74.08;99403.22;5003066;28;20058;-52
2022/04/05 04:24:41;;;;;;;3.80;1.35;;;;;;;10.14;73.86;99401.50;5004215;28;20046;-48
2022/04/05 04:27:11;;;;;;;2.33;1.02;;;;;;;10.14;74.16;99393.75;5002682;28;20089;-50
2022/04/05 04:29:38;;;;;;;1.70;1.20;;;;;;;10.16;74.32;99399.75;5005817;28;20103;-49
2022/04/05 04:32:05;;;;;;;2.40;0.50;;;;;;;10.13;74.18;99400.66;5005270;28;20073;-49
2022/04/05 04:34:32;;;;;;;3.80;0.80;;;;;;;10.13;74.18;99403.22;5005407;28;20050;-49
2022/04/05 04:36:58;;;;;;;1.92;1.13;;;;;;;10.13;74.31;99397.19;5005156;28;20046;-48
2022/04/05 04:39:25;;;;;;;2.30;1.23;;;;;;;10.11;74.04;99404.13;5005382;28;20062;-51
2022/04/05 04:41:56;;;;;;;1.58;0.70;;;;;;;10.13;74.39;99402.38;5005596;28;20452;-51
2022/04/05 04:44:23;;;;;;;1.65;0.90;;;;;;;10.13;74.02;99399.78;5002019;28;20045;-50
2022/04/05 04:46:49;;;;;;;1.30;0.38;;;;;;;10.11;73.96;99405.00;5004809;28;20049;-47
2022/04/05 04:49:16;;;;;;;2.83;0.55;;;;;;;10.12;74.06;99405.84;5004773;28;20038;-46
2022/04/05 04:51:43;;;;;;;2.70;0.82;;;;;;;10.11;74.16;99393.78;5006819;28;20049;-47
2022/04/05 04:54:10;;;;;;;3.25;0.95;;;;;;;10.10;73.74;99402.44;5002947;28;20108;-45
2022/04/05 04:56:36;;;;;;;1.63;0.60;;;;;;;10.11;73.67;99404.13;5004801;28;20076;-46
2022/04/05 04:59:03;;;;;;;2.97;0.65;;;;;;;10.12;73.58;99403.25;5002662;28;20038;-53
2022/04/05 05:01:29;;;;;;;3.25;1.15;;;;;;;10.15;73.62;99396.31;5004708;28;20050;-48
2022/04/05 05:03:56;;;;;;;2.10;0.70;;;;;;;10.17;73.49;99409.25;5001381;28;20042;-52
2022/04/05 05:06:23;;;;;;;2.38;0.98;;;;;;;10.14;73.53;99401.50;5002813;28;20042;-48
2022/04/05 05:08:49;;;;;;;1.48;0.75;;;;;;;10.16;73.44;99399.75;5003745;28;20060;-45
2022/04/05 05:11:16;;;;;;;1.30;0.38;;;;;;;10.12;73.88;99398.06;5005780;28;20425;-47
2022/04/05 05:13:43;;;;;;;1.33;1.23;;;;;;;10.15;73.07;99400.63;4999041;28;20618;-47
2022/04/05 05:16:09;;;;;;;2.30;1.30;;;;;;;10.17;73.10;99398.91;5002693;28;20045;-48
2022/04/05 05:18:37;;;;;;;2.83;1.38;;;;;;;10.15;73.47;99405.81;5005406;28;20038;-53
2022/04/05 05:21:04;;;;;;;2.03;1.25;;;;;;;10.15;73.17;99408.41;5000156;28;20473;-49
2022/04/05 05:23:31;;;;;;;1.52;0.63;;;;;;;10.12;72.97;99400.66;5006207;28;20084;-47
2022/04/05 05:25:57;;;;;;;2.30;0.75;;;;;;;10.16;73.59;99404.94;5004471;28;20068;-49
2022/04/05 05:28:24;;;;;;;1.35;1.10;;;;;;;10.16;73.44;99408.38;5004997;28;20049;-50
2022/04/05 05:30:51;;;;;;;2.78;0.88;;;;;;;10.16;73.16;99410.09;5004775;28;20577;-49
2022/04/05 05:33:17;;;;;;;1.67;1.10;;;;;;;10.15;73.13;99413.56;5004278;28;20062;-50
2022/04/05 05:35:45;;;;;;;1.30;0.82;;;;;;;10.12;72.88;99411.88;5002595;28;20053;-50
2022/04/05 05:38:11;;;;;;;2.97;0.68;;;;;;;10.14;72.74;99422.22;5006390;28;20057;-50
2022/04/05 05:40:38;;;;;;;1.52;0.60;;;;;;;10.12;72.85;99411.00;5000771;28;20836;-52
2022/04/05 05:43:05;;;;;;;1.75;0.80;;;;;;;10.12;73.11;99422.22;5005129;28;20481;-46
2022/04/05 05:45:35;;;;;;;4.43;1.35;;;;;;;10.14;72.96;99419.63;5003389;28;20053;-47
2022/04/05 05:48:04;;;;;;;0.75;0.43;;;;;;;10.10;72.94;99412.78;5002536;28;20042;-51
2022/04/05 05:50:31;;;;;;;1.88;0.80;;;;;;;10.11;72.86;99414.47;5001890;28;20132;-52
2022/04/05 05:52:59;;;;;;;2.38;1.13;;;;;;;10.12;72.59;99413.59;5002714;28;20489;-48
2022/04/05 05:55:26;;;;;;;3.08;0.88;;;;;;;10.12;73.13;99405.84;5001732;28;20128;-52
2022/04/05 05:57:53;;;;;;;1.77;1.50;;;;;;;10.12;72.61;99411.00;5004197;28;20054;-50
2022/04/05 06:00:21;;;;;;;2.45;1.40;;;;;;;10.08;72.84;99407.63;5003036;28;20100;-49
2022/04/05 06:02:50;;;;;;;3.20;1.08;;;;;;;10.08;72.61;99406.75;5003835;28;20089;-50
2022/04/05 06:05:17;;;;;;;1.05;0.77;;;;;;;10.10;71.96;99418.78;5004512;28;20410;-49
2022/04/05 06:07:44;;;;;;;2.10;1.05;;;;;;;10.08;72.79;99404.16;5001858;28;20042;-49
2022/04/05 06:10:13;;;;;;;2.55;0.90;;;;;;;10.06;72.73;99413.69;5000937;28;20103;-51
2022/04/05 06:12:43;;;;;;;1.85;0.50;;;;;;;10.11;72.57;99414.47;5004283;28;20050;-49
2022/04/05 06:15:12;;;;;;;2.63;1.70;;;;;;;10.09;72.91;99418.81;5004033;28;20045;-46
2022/04/05 06:17:41;;;;;;;2.47;0.95;;;;;;;10.07;72.60;99402.44;5005002;28;20398;-49
2022/04/05 06:20:09;;;;;;;3.45;1.20;;;;;;;10.06;72.65;99408.50;5005540;28;20481;-48
2022/04/05 06:22:54;;;;;;;2.70;0.95;;;;;;;9.98;72.95;99399.09;5004792;28;20068;-50
2022/04/05 06:25:27;;;;;;;2.40;1.30;;;;;;;10.02;72.37;99405.94;4998939;28;20050;-47
2022/04/05 06:27:55;;;;;;;1.65;0.70;;;;;;;10.01;72.32;99401.66;5001257;28;20074;-50
2022/04/05 06:30:23;;;;;;;1.70;0.95;;;;;;;10.00;72.36;99394.75;5002429;28;20050;-50
2022/04/05 06:32:50;;;;;;;2.47;1.13;;;;;;;9.99;72.28;99399.94;5006639;28;20050;-48
2022/04/05 06:35:17;;;;;;;2.75;1.40;;;;;;;9.96;72.31;99387.91;5005720;28;20053;-50
2022/04/05 06:37:45;;;;;;;1.55;1.15;;;;;;;10.00;72.78;99391.31;4998690;28;20046;-48
2022/04/05 06:40:14;;;;;;;2.72;0.70;;;;;;;9.98;72.58;99388.75;4996934;28;20747;-46
2022/04/05 06:42:43;;;;;;;1.48;0.73;;;;;;;9.96;72.85;99394.81;4997399;28;20061;-50
2022/04/05 06:45:13;;;;;;;2.05;0.60;;;;;;;9.93;72.24;99395.69;4996997;28;20054;-54
2022/04/05 06:47:40;;;;;;;2.20;1.00;;;;;;;9.97;72.40;99402.53;5003362;28;20069;-49
2022/04/05 06:50:09;;;;;;;1.20;0.80;;;;;;;9.98;72.68;99401.69;5002887;28;20058;-48
2022/04/05 06:52:37;;;;;;;3.55;0.93;;;;;;;9.98;72.53;99399.09;5003614;28;20046;-51
2022/04/05 06:55:05;;;;;;;2.30;0.68;;;;;;;10.00;72.24;99396.50;5003363;28;20081;-47
2022/04/05 06:57:32;;;;;;;4.47;0.90;;;;;;;10.02;72.75;99408.53;4998722;28;20511;-49
2022/04/05 06:59:59;;;;;;;4.47;0.95;;;;;;;10.01;72.49;99404.25;4999406;28;20130;-48
2022/04/05 07:02:25;;;;;;;2.72;1.25;;;;;;;10.03;72.26;99407.66;4999240;28;20070;-48
2022/04/05 07:04:52;;;;;;;1.92;0.57;;;;;;;10.03;71.89;99407.66;5004021;28;20050;-51
2022/04/05 07:07:19;;;;;;;3.33;0.52;;;;;;;10.08;71.70;99414.50;5002707;28;20624;-47
2022/04/05 07:09:45;;;;;;;1.60;0.98;;;;;;;10.11;72.00;99414.47;4998362;28;20046;-46
2022/04/05 07:12:12;;;;;;;3.15;1.33;;;;;;;10.13;71.94;99413.59;5003376;28;20054;-46
2022/04/05 07:14:39;;;;;;;7.72;1.40;;;;;;;10.14;71.49;99417.03;5000858;28;20061;-47
2022/04/05 07:17:06;;;;;;;3.70;1.17;;;;;;;10.18;72.08;99416.13;5000454;28;20778;-48
2022/04/05 07:19:33;;;;;;;7.95;3.65;;;;;;;10.22;71.93;99419.53;4999131;28;20100;-51
2022/04/05 07:22:01;;;;;;;8.50;1.20;;;;;;;10.19;71.12;99417.84;5001275;28;20916;-51
2022/04/05 07:24:28;;;;;;;3.72;2.05;;;;;;;10.23;71.51;99427.28;4999485;28;20057;-47
2022/04/05 07:26:55;;;;;;;8.52;2.30;;;;;;;10.28;71.45;99420.34;4996492;28;20054;-48
2022/04/05 07:29:21;;;;;;;9.15;2.95;;;;;;;10.32;71.70;99422.88;5000619;28;20126;-50
2022/04/05 07:31:48;;;;;;;4.88;0.90;;;;;;;10.31;71.03;99422.03;5003115;28;20058;-49
2022/04/05 07:34:15;;;;;;;6.70;2.00;;;;;;;10.34;70.99;99427.16;5002115;28;20049;-48
2022/04/05 07:36:41;;;;;;;5.03;1.88;;;;;;;10.37;71.47;99421.09;5005326;28;20052;-45
2022/04/05 07:39:08;;;;;;;4.20;1.10;;;;;;;10.40;70.67;99423.63;5003638;28;20537;-49
2022/04/05 07:41:35;;;;;;;6.20;2.03;;;;;;;10.43;70.50;99415.00;5004368;28;20054;-47
2022/04/05 07:44:02;;;;;;;3.70;1.65;;;;;;;10.45;70.75;99421.88;5004468;28;20057;-51
2022/04/05 07:46:28;;;;;;;7.57;1.48;;;;;;;10.50;70.36;99401.97;5004688;28;20096;-49
2022/04/05 07:48:55;;;;;;;4.88;1.92;;;;;;;10.54;70.02;99413.16;5007378;28;20046;-49
2022/04/05 07:51:22;;;;;;;9.93;3.47;;;;;;;10.57;69.97;99407.06;5007046;28;20061;-46
2022/04/05 07:53:49;;;;;;;5.85;1.83;;;;;;;10.63;69.89;99409.56;5009030;28;20080;-47
2022/04/05 07:56:15;;;;;;;4.43;1.77;;;;;;;10.66;70.04;99402.63;5003049;28;20373;-48
2022/04/05 07:58:43;;;;;;;4.78;1.48;;;;;;;10.67;69.86;99403.47;5008778;28;20473;-49
2022/04/05 08:01:10;;;;;;;6.32;2.15;;;;;;;10.70;70.12;99398.25;5000253;28;20061;-51
2022/04/05 08:03:38;;;;;;;4.25;1.63;;;;;;;10.77;69.23;99399.88;5004089;28;20140;-49
2022/04/05 08:06:06;;;;;;;5.18;1.65;;;;;;;10.82;69.81;99398.97;5004145;28;20052;-50
2022/04/05 08:08:33;;;;;;;3.33;1.20;;;;;;;10.85;69.43;99401.50;5002875;28;20045;-48
2022/04/05 08:11:20;;;;;;;1.50;0.40;;;;;;;10.89;69.55;99398.00;5006459;28;20119;-47
2022/04/05 08:13:47;;;;;;;4.32;1.00;;;;;;;10.93;68.44;99399.66;5007334;28;20050;-48
2022/04/05 08:16:14;;;;;;;3.65;1.55;;;;;;;11.01;68.55;99400.41;5007008;28;20042;-50
2022/04/05 08:18:41;;;;;;;7.70;2.10;;;;;;;11.11;67.95;99405.47;5002038;28;20042;-47
2022/04/05 08:21:07;;;;;;;4.88;1.77;;;;;;;11.15;67.64;99404.53;5005784;28;20553;-51
2022/04/05 08:23:34;;;;;;;4.32;1.33;;;;;;;11.19;67.52;99403.59;5002932;28;20523;-50
2022/04/05 08:26:01;;;;;;;2.53;1.17;;;;;;;11.23;67.55;99402.66;5000958;28;20054;-48
2022/04/05 08:28:27;;;;;;;4.40;1.13;;;;;;;11.28;67.84;99411.22;5004793;28;20054;-47
2022/04/05 08:30:55;;;;;;;5.30;1.55;;;;;;;11.31;66.88;99408.59;5003254;28;20053;-50
2022/04/05 08:33:22;;;;;;;9.00;2.15;;;;;;;11.43;67.94;99404.09;5001510;28;20050;-52
2022/04/05 08:35:52;;;;;;;7.90;1.95;;;;;;;11.58;66.81;99408.13;4999902;28;20065;-51
2022/04/05 08:38:19;;;;;;;4.60;1.92;;;;;;;11.69;66.16;99405.38;5007596;28;20069;-50
2022/04/05 08:40:45;;;;;;;2.95;0.82;;;;;;;11.82;65.59;99406.84;5003281;28;20053;-49
2022/04/05 08:43:12;;;;;;;7.93;1.58;;;;;;;11.75;66.30;99402.66;4998988;28;20992;-51
2022/04/05 08:45:47;;;;;;;6.03;2.33;;;;;;;11.71;65.89;99393.22;5001752;28;20069;-49
2022/04/05 08:48:14;;;;;;;3.30;1.83;;;;;;;11.64;65.25;99408.06;5007093;28;20046;-52
2022/04/05 08:50:41;;;;;;;5.30;1.35;;;;;;;11.54;65.07;99396.97;5007302;28;20050;-50
2022/04/05 08:53:08;;;;;;;5.85;1.38;;;;;;;11.50;64.41;99400.50;5006051;28;20128;-52
2022/04/05 08:55:36;;;;;;;5.38;1.23;;;;;;;11.49;65.35;99405.72;5004249;28;20841;-49
2022/04/05 08:58:04;;;;;;;8.65;1.13;;;;;;;11.51;64.76;99402.22;5003793;28;20072;-54
2022/04/05 09:00:30;;;;;;;7.82;1.48;;;;;;;11.48;64.22;99402.25;5000541;28;20045;-53
2022/04/05 09:03:00;;;;;;;3.72;1.58;;;;;;;11.47;64.90;99392.78;5004552;28;20587;-52
2022/04/05 09:08:13;;;;;;;8.40;1.48;;;;;;;11.54;64.31;99409.94;5038634;28;21134;-51
2022/04/05 09:10:41;;;;;;;6.95;1.42;;;;;;;11.60;64.67;99415.91;5032520;28;20075;-49
2022/04/05 09:13:12;;;;;;;5.15;1.23;;;;;;;11.60;63.70;99410.72;5026080;28;20056;-47
2022/04/05 09:15:41;;;;;;;3.38;0.93;;;;;;;11.56;63.87;99421.13;5024916;28;20059;-50
2022/04/05 09:18:07;;;;;;;6.40;0.98;;;;;;;11.56;64.80;99415.94;5026198;28;20203;-47
2022/04/05 09:20:51;;;;;;;3.35;0.98;;;;;;;11.44;63.75;99411.84;5028206;28;20421;-50
2022/04/05 09:23:23;;;;;;;4.32;0.65;;;;;;;11.46;63.89;99424.78;5045470;28;20102;-50
2022/04/05 09:26:00;;;;;;;4.80;1.40;;;;;;;11.50;63.60;99423.84;5041176;28;20107;-47
2022/04/05 09:28:32;;;;;;;3.00;1.65;;;;;;;11.41;63.72;99422.25;5039152;28;20056;-46
2022/04/05 09:31:01;;;;;;;6.07;1.17;;;;;;;11.42;63.69;99415.34;5040401;28;20111;-47
2022/04/05 09:33:30;;;;;;;6.45;1.33;;;;;;;11.39;63.07;99412.78;5041892;28;20057;-51
2022/04/05 09:36:16;;;;;;;6.63;1.33;;;;;;;11.34;63.88;99409.44;5042287;28;20045;-47
2022/04/05 09:38:44;;;;;;;2.88;1.00;;;;;;;11.35;62.53;99411.13;5068826;28;20049;-50
2022/04/05 09:43:57;;;;;;;8.63;2.45;;;;;;;11.50;63.25;99400.50;5027866;28;20397;-51
2022/04/05 09:46:25;;;;;;;5.13;1.58;;;;;;;11.50;62.16;99404.81;5016979;28;20045;-51
2022/04/05 09:49:02;;;;;;;3.67;0.93;;;;;;;11.62;61.67;99409.81;5014367;28;20060;-50
2022/04/05 09:51:36;;;;;;;6.63;1.60;;;;;;;11.87;61.91;99411.09;5015513;28;20108;-47
2022/04/05 09:54:02;;;;;;;6.15;0.98;;;;;;;12.16;61.06;99404.56;5017369;28;20049;-50
2022/04/05 09:56:32;;;;;;;2.90;0.85;;;;;;;12.68;59.22;99401.75;5014965;28;20049;-49
2022/04/05 09:59:04;;;;;;;2.95;0.93;;;;;;;12.89;58.18;99410.81;5015311;28;20045;-50
2022/04/05 10:01:33;;;;;;;5.00;1.17;;;;;;;13.14;58.04;99410.22;5013211;28;20069;-49
2022/04/05 10:06:46;;;;;;;4.30;1.88;;;;;;;13.30;57.42;99421.13;5015387;28;20412;-47
2022/04/05 10:09:16;;;;;;;2.92;1.67;;;;;;;13.24;57.45;99418.66;4999628;28;20366;-51
2022/04/05 10:11:43;;;;;;;;;;;;;;;13.05;56.14;99400.94;5007560;28;20052;-47
2022/04/05 10:14:13;;;;;;;3.47;1.88;;;;;;;13.05;57.20;99413.06;5002931;28;19921;-50
2022/04/05 10:16:40;;;;;;;5.15;1.80;;;;;;;12.89;57.12;99407.34;4999434;28;20058;-50
2022/04/05 10:19:09;;;;;;;6.18;2.05;;;;;;;12.85;57.70;99420.44;4998539;28;20050;-47
2022/04/05 10:21:41;;;;;;;4.28;2.45;;;;;;;12.73;56.94;99412.88;4993368;28;20548;-47
2022/04/05 10:24:09;;;;;;;3.63;1.90;;;;;;;12.59;56.90;99408.84;4998588;28;20056;-51
2022/04/05 10:26:39;;;;;;;2.50;1.95;;;;;;;12.52;57.02;99402.06;4995874;28;20042;-49
2022/04/05 10:29:08;;;;;;;5.97;2.78;;;;;;;12.44;56.47;99410.06;5002856;28;20054;-50
2022/04/05 10:34:23;;;;;;;3.40;1.05;;;;;;;12.37;57.72;99397.22;5006558;28;22095;-51
2022/04/05 10:37:17;;;;;;;6.57;1.42;;;;;;;12.30;55.86;99402.50;4998222;28;20050;-51
2022/04/05 10:42:40;;;;;;;4.25;1.38;;;;;;;12.31;56.92;99403.38;5012239;28;20403;-48
2022/04/05 10:45:28;;;;;;;4.85;0.73;;;;;;;12.29;56.38;99400.81;4967386;28;20571;-53
2022/04/05 10:48:18;;;;;;;6.00;1.60;;;;;;;12.26;56.29;99400.88;4999595;28;20621;-49
2022/04/05 10:54:17;;;;;;;6.32;2.80;;;;;;;12.36;55.98;99395.50;5020464;28;20426;-48
2022/04/05 10:56:30;;;;;;;6.35;2.45;;;;;;;12.32;56.46;99405.94;4998719;28;20050;-53
2022/04/05 11:01:45;;;;;;;3.05;1.08;;;;;;;12.38;56.90;99404.09;5039519;28;20432;-49
2022/04/05 11:07:10;;;;;;;7.88;1.80;;;;;;;12.43;56.07;99407.47;5028510;28;20891;-48
2022/04/05 11:09:49;;;;;;;2.58;1.05;;;;;;;12.34;55.08;99398.97;4977161;28;20050;-51
2022/04/05 11:12:21;;;;;;;5.07;1.10;;;;;;;12.40;55.56;99399.75;4997948;28;21533;-46
2022/04/05 11:14:52;;;;;;;5.60;1.17;;;;;;;12.40;56.19;99397.16;4997353;28;20057;-50
2022/04/05 11:17:21;;;;;;;5.80;1.50;;;;;;;12.42;56.15;99401.41;4997371;28;20050;-54
2022/04/05 11:19:51;;;;;;;5.28;1.58;;;;;;;12.43;55.16;99407.47;4996942;28;20097;-47
2022/04/05 11:38:28;;;;;;;4.03;1.73;;;;;;;12.59;53.25;99372.50;5038430;28;20412;-54
2022/04/05 11:41:00;;;;;;;5.18;2.30;;;;;;;12.74;53.47;99370.44;4978646;28;20050;-55
2022/04/05 11:43:31;;;;;;;7.75;2.83;;;;;;;12.81;53.81;99377.22;4972298;28;20061;-52
2022/04/05 11:48:40;;;;;;;1.80;0.60;;;;;;;12.95;51.67;99368.22;5028089;28;20408;-55
2022/04/05 11:51:09;;;;;;;5.07;1.10;;;;;;;13.02;52.56;99376.72;5018169;28;20760;-57
2022/04/05 11:53:36;;;;;;;5.05;1.40;;;;;;;13.03;51.45;99371.50;5012674;28;20045;-51
2022/04/05 11:58:42;;;;;;;3.95;0.90;;;;;;;13.51;51.16;99366.88;5000077;27;20909;-56
2022/04/05 12:01:11;;;;;;;7.68;1.70;;;;;;;13.71;51.54;99373.34;4996329;28;20422;-53
2022/04/05 17:27:46;;;;;;;1.00;0.95;;;;;;;12.22;51.12;99092.88;4980680;28;20074;-52
2022/04/05 17:30:15;;;;;;;1.05;0.30;;;;;;;12.13;51.28;99093.13;4969400;28;20320;-45
2022/04/05 17:32:43;;;;;;;0.75;0.40;;;;;;;12.21;51.09;99098.97;4966379;28;20054;-49
2022/04/05 17:35:12;;;;;;;3.70;0.95;;;;;;;12.15;51.45;99102.56;4985164;28;20077;-51
2022/04/05 17:37:39;;;;;;;0.95;0.30;;;;;;;12.14;51.78;99100.88;4972578;28;20055;-43
2022/04/05 17:40:07;;;;;;;3.05;0.35;;;;;;;12.13;52.15;99098.31;4972949;28;21184;-46
2022/04/05 17:42:33;;;;;;;0.80;0.50;;;;;;;12.12;52.49;99107.81;4976355;28;20112;-43
2022/04/05 17:45:01;;;;;;;5.72;1.70;;;;;;;12.11;51.89;99107.84;4971540;28;20055;-45
2022/04/05 17:47:27;;;;;;;3.30;0.95;;;;;;;12.14;52.36;99094.81;4972495;28;20153;-47
2022/04/05 17:49:54;;;;;;;28.20;8.50;;;;;;;12.12;52.60;99099.22;4970418;28;20062;-45
2022/04/05 17:52:22;;;;;;;1.35;0.52;;;;;;;12.07;51.64;99094.97;4968923;28;21174;-46